sensor_id;sensor_type;location;lat;lon;timestamp;P1;durP1;ratioP1;P2;durP2;ratioP2
6300;SDS011;3183;51.010;6.898;2022-11-15T00:01:13;11.83;;;7.27;;
6300;SDS011;3183;51.010;6.898;2022-11-15T00:03:41;11.10;;;7.80;;
6300;SDS011;3183;51.010;6.898;2022-11-15T00:06:09;19.53;;;8.13;;
6300;SDS011;3183;51.010;6.898;2022-11-15T00:08:37;13.67;;;7.97;;
6300;SDS011;3183;51.010;6.898;2022-11-15T00:11:04;11.37;;;7.50;;
6300;SDS011;3183;51.010;6.898;2022-11-15T00:13:31;16.50;;;8.70;;
6300;SDS011;3183;51.010;6.898;2022-11-15T00:15:59;16.37;;;9.57;;
6300;SDS011;3183;51.010;6.898;2022-11-15T00:18:26;15.23;;;8.37;;
6300;SDS011;3183;51.010;6.898;2022-11-15T00:20:53;16.60;;;7.80;;
6300;SDS011;3183;51.010;6.898;2022-11-15T00:23:20;12.63;;;6.90;;
6300;SDS011;3183;51.010;6.898;2022-11-15T00:25:55;16.03;;;8.13;;
6300;SDS011;3183;51.010;6.898;2022-11-15T00:28:23;17.30;;;8.33;;
6300;SDS011;3183;51.010;6.898;2022-11-15T00:30:50;10.93;;;7.37;;
6300;SDS011;3183;51.010;6.898;2022-11-15T00:33:17;17.10;;;8.00;;
6300;SDS011;3183;51.010;6.898;2022-11-15T00:35:44;13.03;;;7.60;;
6300;SDS011;3183;51.010;6.898;2022-11-15T00:38:12;11.70;;;7.93;;
6300;SDS011;3183;51.010;6.898;2022-11-15T00:40:39;14.57;;;8.00;;
6300;SDS011;3183;51.010;6.898;2022-11-15T00:43:07;14.40;;;8.13;;
6300;SDS011;3183;51.010;6.898;2022-11-15T00:45:34;20.40;;;7.27;;
6300;SDS011;3183;51.010;6.898;2022-11-15T00:48:02;10.83;;;7.80;;
6300;SDS011;3183;51.010;6.898;2022-11-15T00:50:29;14.60;;;8.27;;
6300;SDS011;3183;51.010;6.898;2022-11-15T00:52:56;14.47;;;7.50;;
6300;SDS011;3183;51.010;6.898;2022-11-15T00:55:23;10.20;;;6.70;;
6300;SDS011;3183;51.010;6.898;2022-11-15T00:57:50;11.07;;;7.83;;
6300;SDS011;3183;51.010;6.898;2022-11-15T01:00:18;12.03;;;7.03;;
6300;SDS011;3183;51.010;6.898;2022-11-15T01:02:46;15.23;;;8.27;;
6300;SDS011;3183;51.010;6.898;2022-11-15T01:05:13;12.20;;;8.00;;
6300;SDS011;3183;51.010;6.898;2022-11-15T01:07:40;13.27;;;8.10;;
6300;SDS011;3183;51.010;6.898;2022-11-15T01:10:07;12.77;;;7.20;;
6300;SDS011;3183;51.010;6.898;2022-11-15T01:12:34;12.27;;;7.10;;
6300;SDS011;3183;51.010;6.898;2022-11-15T01:15:01;13.37;;;7.00;;
6300;SDS011;3183;51.010;6.898;2022-11-15T01:17:31;11.83;;;7.67;;
6300;SDS011;3183;51.010;6.898;2022-11-15T01:19:58;12.97;;;8.07;;
6300;SDS011;3183;51.010;6.898;2022-11-15T01:22:25;9.90;;;7.20;;
6300;SDS011;3183;51.010;6.898;2022-11-15T01:24:52;13.77;;;8.07;;
6300;SDS011;3183;51.010;6.898;2022-11-15T01:27:19;19.53;;;8.00;;
6300;SDS011;3183;51.010;6.898;2022-11-15T01:29:46;15.53;;;7.13;;
6300;SDS011;3183;51.010;6.898;2022-11-15T01:32:13;15.03;;;7.40;;
6300;SDS011;3183;51.010;6.898;2022-11-15T01:34:42;14.30;;;7.40;;
6300;SDS011;3183;51.010;6.898;2022-11-15T01:37:09;8.80;;;7.00;;
6300;SDS011;3183;51.010;6.898;2022-11-15T01:39:36;13.50;;;7.50;;
6300;SDS011;3183;51.010;6.898;2022-11-15T01:42:03;14.43;;;8.20;;
6300;SDS011;3183;51.010;6.898;2022-11-15T01:47:20;20.93;;;7.90;;
6300;SDS011;3183;51.010;6.898;2022-11-15T01:49:52;16.13;;;7.97;;
6300;SDS011;3183;51.010;6.898;2022-11-15T01:52:20;17.80;;;7.50;;
6300;SDS011;3183;51.010;6.898;2022-11-15T01:54:49;13.90;;;8.40;;
6300;SDS011;3183;51.010;6.898;2022-11-15T01:57:17;17.40;;;8.80;;
6300;SDS011;3183;51.010;6.898;2022-11-15T01:59:44;12.20;;;7.17;;
6300;SDS011;3183;51.010;6.898;2022-11-15T02:02:12;13.37;;;7.30;;
6300;SDS011;3183;51.010;6.898;2022-11-15T02:04:41;12.13;;;7.60;;
6300;SDS011;3183;51.010;6.898;2022-11-15T02:07:10;18.10;;;8.60;;
6300;SDS011;3183;51.010;6.898;2022-11-15T02:09:38;11.80;;;7.17;;
6300;SDS011;3183;51.010;6.898;2022-11-15T02:12:05;16.47;;;8.37;;
6300;SDS011;3183;51.010;6.898;2022-11-15T02:14:34;17.17;;;8.13;;
6300;SDS011;3183;51.010;6.898;2022-11-15T02:17:02;16.33;;;7.77;;
6300;SDS011;3183;51.010;6.898;2022-11-15T02:19:40;13.37;;;8.43;;
6300;SDS011;3183;51.010;6.898;2022-11-15T02:22:13;11.70;;;7.27;;
6300;SDS011;3183;51.010;6.898;2022-11-15T02:24:49;11.60;;;7.60;;
6300;SDS011;3183;51.010;6.898;2022-11-15T02:27:33;11.93;;;7.30;;
6300;SDS011;3183;51.010;6.898;2022-11-15T02:30:18;11.70;;;8.27;;
6300;SDS011;3183;51.010;6.898;2022-11-15T02:32:45;14.30;;;7.30;;
6300;SDS011;3183;51.010;6.898;2022-11-15T02:35:16;13.90;;;7.50;;
6300;SDS011;3183;51.010;6.898;2022-11-15T02:37:47;11.70;;;7.50;;
6300;SDS011;3183;51.010;6.898;2022-11-15T02:40:21;16.13;;;8.20;;
6300;SDS011;3183;51.010;6.898;2022-11-15T02:42:51;14.67;;;7.87;;
6300;SDS011;3183;51.010;6.898;2022-11-15T02:45:40;11.80;;;7.40;;
6300;SDS011;3183;51.010;6.898;2022-11-15T02:48:08;10.80;;;7.30;;
6300;SDS011;3183;51.010;6.898;2022-11-15T02:50:36;11.73;;;8.23;;
6300;SDS011;3183;51.010;6.898;2022-11-15T02:53:04;18.73;;;7.40;;
6300;SDS011;3183;51.010;6.898;2022-11-15T02:55:31;14.13;;;8.00;;
6300;SDS011;3183;51.010;6.898;2022-11-15T02:58:04;15.17;;;7.23;;
6300;SDS011;3183;51.010;6.898;2022-11-15T03:00:33;13.43;;;7.90;;
6300;SDS011;3183;51.010;6.898;2022-11-15T03:03:19;13.67;;;7.63;;
6300;SDS011;3183;51.010;6.898;2022-11-15T03:05:50;11.13;;;6.60;;
6300;SDS011;3183;51.010;6.898;2022-11-15T03:08:21;11.70;;;7.90;;
6300;SDS011;3183;51.010;6.898;2022-11-15T03:10:54;13.30;;;6.80;;
6300;SDS011;3183;51.010;6.898;2022-11-15T03:13:24;12.13;;;6.33;;
6300;SDS011;3183;51.010;6.898;2022-11-15T03:15:54;12.93;;;7.43;;
6300;SDS011;3183;51.010;6.898;2022-11-15T03:18:27;9.30;;;6.80;;
6300;SDS011;3183;51.010;6.898;2022-11-15T03:20:57;13.40;;;6.33;;
6300;SDS011;3183;51.010;6.898;2022-11-15T03:23:25;8.23;;;6.50;;
6300;SDS011;3183;51.010;6.898;2022-11-15T03:25:53;13.03;;;7.50;;
6300;SDS011;3183;51.010;6.898;2022-11-15T03:28:22;16.00;;;7.30;;
6300;SDS011;3183;51.010;6.898;2022-11-15T03:30:50;12.30;;;7.73;;
6300;SDS011;3183;51.010;6.898;2022-11-15T03:33:19;10.20;;;7.40;;
6300;SDS011;3183;51.010;6.898;2022-11-15T03:35:49;13.40;;;7.63;;
6300;SDS011;3183;51.010;6.898;2022-11-15T03:38:17;12.57;;;7.53;;
6300;SDS011;3183;51.010;6.898;2022-11-15T03:40:47;12.27;;;6.70;;
6300;SDS011;3183;51.010;6.898;2022-11-15T03:43:18;11.13;;;6.90;;
6300;SDS011;3183;51.010;6.898;2022-11-15T03:45:49;12.63;;;6.73;;
6300;SDS011;3183;51.010;6.898;2022-11-15T03:48:18;11.50;;;6.87;;
6300;SDS011;3183;51.010;6.898;2022-11-15T03:50:48;11.37;;;6.27;;
6300;SDS011;3183;51.010;6.898;2022-11-15T03:53:15;8.33;;;6.00;;
6300;SDS011;3183;51.010;6.898;2022-11-15T03:55:43;9.50;;;6.90;;
6300;SDS011;3183;51.010;6.898;2022-11-15T03:58:10;8.77;;;6.07;;
6300;SDS011;3183;51.010;6.898;2022-11-15T04:00:39;10.13;;;6.10;;
6300;SDS011;3183;51.010;6.898;2022-11-15T04:03:06;7.90;;;5.90;;
6300;SDS011;3183;51.010;6.898;2022-11-15T04:05:38;9.00;;;6.40;;
6300;SDS011;3183;51.010;6.898;2022-11-15T04:08:11;9.60;;;6.40;;
6300;SDS011;3183;51.010;6.898;2022-11-15T04:10:39;11.03;;;5.50;;
6300;SDS011;3183;51.010;6.898;2022-11-15T04:13:06;8.87;;;6.00;;
6300;SDS011;3183;51.010;6.898;2022-11-15T04:15:33;9.83;;;5.73;;
6300;SDS011;3183;51.010;6.898;2022-11-15T04:18:00;9.50;;;5.57;;
6300;SDS011;3183;51.010;6.898;2022-11-15T04:20:28;11.20;;;5.80;;
6300;SDS011;3183;51.010;6.898;2022-11-15T04:23:15;10.73;;;5.97;;
6300;SDS011;3183;51.010;6.898;2022-11-15T04:26:01;8.37;;;5.83;;
6300;SDS011;3183;51.010;6.898;2022-11-15T04:28:28;16.10;;;6.50;;
6300;SDS011;3183;51.010;6.898;2022-11-15T04:30:55;17.23;;;6.43;;
6300;SDS011;3183;51.010;6.898;2022-11-15T04:33:22;9.33;;;6.70;;
6300;SDS011;3183;51.010;6.898;2022-11-15T04:35:50;8.47;;;5.40;;
6300;SDS011;3183;51.010;6.898;2022-11-15T04:38:32;17.00;;;5.90;;
6300;SDS011;3183;51.010;6.898;2022-11-15T04:40:59;11.80;;;6.20;;
6300;SDS011;3183;51.010;6.898;2022-11-15T04:43:26;12.23;;;6.30;;
6300;SDS011;3183;51.010;6.898;2022-11-15T04:45:53;8.13;;;6.07;;
6300;SDS011;3183;51.010;6.898;2022-11-15T04:48:21;12.83;;;6.40;;
6300;SDS011;3183;51.010;6.898;2022-11-15T04:50:48;9.70;;;6.03;;
6300;SDS011;3183;51.010;6.898;2022-11-15T04:53:15;7.00;;;5.80;;
6300;SDS011;3183;51.010;6.898;2022-11-15T04:55:45;11.40;;;6.00;;
6300;SDS011;3183;51.010;6.898;2022-11-15T04:58:12;9.13;;;6.23;;
6300;SDS011;3183;51.010;6.898;2022-11-15T05:00:39;9.77;;;6.75;;
6300;SDS011;3183;51.010;6.898;2022-11-15T05:03:08;9.63;;;6.50;;
6300;SDS011;3183;51.010;6.898;2022-11-15T05:05:53;8.50;;;6.20;;
6300;SDS011;3183;51.010;6.898;2022-11-15T05:08:20;6.53;;;5.40;;
6300;SDS011;3183;51.010;6.898;2022-11-15T05:10:48;9.37;;;6.50;;
6300;SDS011;3183;51.010;6.898;2022-11-15T05:13:15;9.30;;;6.40;;
6300;SDS011;3183;51.010;6.898;2022-11-15T05:15:42;13.50;;;6.23;;
6300;SDS011;3183;51.010;6.898;2022-11-15T05:18:11;10.07;;;6.53;;
6300;SDS011;3183;51.010;6.898;2022-11-15T05:20:38;13.23;;;6.10;;
6300;SDS011;3183;51.010;6.898;2022-11-15T05:23:05;9.30;;;6.03;;
6300;SDS011;3183;51.010;6.898;2022-11-15T05:25:32;11.47;;;6.60;;
6300;SDS011;3183;51.010;6.898;2022-11-15T05:28:00;8.17;;;5.47;;
6300;SDS011;3183;51.010;6.898;2022-11-15T05:30:27;11.43;;;6.60;;
6300;SDS011;3183;51.010;6.898;2022-11-15T05:32:54;12.60;;;6.20;;
6300;SDS011;3183;51.010;6.898;2022-11-15T05:35:25;9.20;;;6.13;;
6300;SDS011;3183;51.010;6.898;2022-11-15T05:37:53;9.50;;;5.20;;
6300;SDS011;3183;51.010;6.898;2022-11-15T05:40:20;7.63;;;5.53;;
6300;SDS011;3183;51.010;6.898;2022-11-15T05:42:48;7.23;;;4.97;;
6300;SDS011;3183;51.010;6.898;2022-11-15T05:45:16;8.53;;;6.07;;
6300;SDS011;3183;51.010;6.898;2022-11-15T05:47:43;8.80;;;6.00;;
6300;SDS011;3183;51.010;6.898;2022-11-15T05:50:11;9.90;;;5.67;;
6300;SDS011;3183;51.010;6.898;2022-11-15T05:52:39;8.50;;;5.80;;
6300;SDS011;3183;51.010;6.898;2022-11-15T05:55:06;10.23;;;6.50;;
6300;SDS011;3183;51.010;6.898;2022-11-15T05:57:34;8.67;;;5.87;;
6300;SDS011;3183;51.010;6.898;2022-11-15T06:00:02;8.53;;;5.90;;
6300;SDS011;3183;51.010;6.898;2022-11-15T06:02:31;8.50;;;6.50;;
6300;SDS011;3183;51.010;6.898;2022-11-15T06:04:58;7.83;;;5.80;;
6300;SDS011;3183;51.010;6.898;2022-11-15T06:07:25;10.00;;;5.60;;
6300;SDS011;3183;51.010;6.898;2022-11-15T06:09:52;8.00;;;5.20;;
6300;SDS011;3183;51.010;6.898;2022-11-15T06:12:19;11.33;;;6.03;;
6300;SDS011;3183;51.010;6.898;2022-11-15T06:14:46;7.83;;;5.60;;
6300;SDS011;3183;51.010;6.898;2022-11-15T06:17:13;12.93;;;5.67;;
6300;SDS011;3183;51.010;6.898;2022-11-15T06:19:41;9.60;;;5.70;;
6300;SDS011;3183;51.010;6.898;2022-11-15T06:22:09;8.30;;;5.77;;
6300;SDS011;3183;51.010;6.898;2022-11-15T06:24:36;7.87;;;6.37;;
6300;SDS011;3183;51.010;6.898;2022-11-15T06:27:03;9.43;;;5.80;;
6300;SDS011;3183;51.010;6.898;2022-11-15T06:29:30;13.77;;;5.60;;
6300;SDS011;3183;51.010;6.898;2022-11-15T06:31:57;10.60;;;5.70;;
6300;SDS011;3183;51.010;6.898;2022-11-15T06:34:24;10.57;;;6.00;;
6300;SDS011;3183;51.010;6.898;2022-11-15T06:36:53;20.50;;;5.43;;
6300;SDS011;3183;51.010;6.898;2022-11-15T06:39:20;14.30;;;5.70;;
6300;SDS011;3183;51.010;6.898;2022-11-15T06:41:47;25.27;;;7.50;;
6300;SDS011;3183;51.010;6.898;2022-11-15T06:44:14;6.20;;;4.90;;
6300;SDS011;3183;51.010;6.898;2022-11-15T06:46:41;7.17;;;5.23;;
6300;SDS011;3183;51.010;6.898;2022-11-15T06:49:08;16.23;;;5.30;;
6300;SDS011;3183;51.010;6.898;2022-11-15T06:51:35;5.73;;;4.70;;
6300;SDS011;3183;51.010;6.898;2022-11-15T06:54:04;7.30;;;5.10;;
6300;SDS011;3183;51.010;6.898;2022-11-15T06:56:31;8.70;;;6.00;;
6300;SDS011;3183;51.010;6.898;2022-11-15T06:58:58;8.60;;;5.70;;
6300;SDS011;3183;51.010;6.898;2022-11-15T07:01:25;6.97;;;4.70;;
6300;SDS011;3183;51.010;6.898;2022-11-15T07:03:52;7.17;;;5.10;;
6300;SDS011;3183;51.010;6.898;2022-11-15T07:06:19;8.10;;;5.60;;
6300;SDS011;3183;51.010;6.898;2022-11-15T07:08:46;19.70;;;5.23;;
6300;SDS011;3183;51.010;6.898;2022-11-15T07:11:15;12.77;;;4.90;;
6300;SDS011;3183;51.010;6.898;2022-11-15T07:13:42;14.07;;;5.67;;
6300;SDS011;3183;51.010;6.898;2022-11-15T07:16:09;8.20;;;4.53;;
6300;SDS011;3183;51.010;6.898;2022-11-15T07:18:37;9.27;;;4.93;;
6300;SDS011;3183;51.010;6.898;2022-11-15T07:21:05;13.00;;;5.97;;
6300;SDS011;3183;51.010;6.898;2022-11-15T07:23:32;13.00;;;4.80;;
6300;SDS011;3183;51.010;6.898;2022-11-15T07:26:00;7.83;;;4.83;;
6300;SDS011;3183;51.010;6.898;2022-11-15T07:28:28;5.13;;;3.77;;
6300;SDS011;3183;51.010;6.898;2022-11-15T07:30:55;5.57;;;4.33;;
6300;SDS011;3183;51.010;6.898;2022-11-15T07:33:22;13.20;;;4.70;;
6300;SDS011;3183;51.010;6.898;2022-11-15T07:35:49;10.57;;;4.70;;
6300;SDS011;3183;51.010;6.898;2022-11-15T07:38:16;16.13;;;9.17;;
6300;SDS011;3183;51.010;6.898;2022-11-15T07:40:45;17.03;;;4.73;;
6300;SDS011;3183;51.010;6.898;2022-11-15T07:43:12;9.50;;;4.87;;
6300;SDS011;3183;51.010;6.898;2022-11-15T07:45:41;6.60;;;4.80;;
6300;SDS011;3183;51.010;6.898;2022-11-15T07:48:08;8.23;;;4.60;;
6300;SDS011;3183;51.010;6.898;2022-11-15T07:50:35;5.80;;;4.20;;
6300;SDS011;3183;51.010;6.898;2022-11-15T07:53:02;6.20;;;3.87;;
6300;SDS011;3183;51.010;6.898;2022-11-15T07:55:29;8.10;;;4.93;;
6300;SDS011;3183;51.010;6.898;2022-11-15T07:58:00;5.87;;;4.00;;
6300;SDS011;3183;51.010;6.898;2022-11-15T08:00:27;5.47;;;4.57;;
6300;SDS011;3183;51.010;6.898;2022-11-15T08:03:02;4.30;;;3.53;;
6300;SDS011;3183;51.010;6.898;2022-11-15T08:05:29;6.10;;;4.20;;
6300;SDS011;3183;51.010;6.898;2022-11-15T08:07:56;9.20;;;3.93;;
6300;SDS011;3183;51.010;6.898;2022-11-15T08:10:23;7.40;;;3.60;;
6300;SDS011;3183;51.010;6.898;2022-11-15T08:12:56;6.80;;;3.20;;
6300;SDS011;3183;51.010;6.898;2022-11-15T08:15:23;6.87;;;3.87;;
6300;SDS011;3183;51.010;6.898;2022-11-15T08:17:53;9.43;;;3.60;;
6300;SDS011;3183;51.010;6.898;2022-11-15T08:20:23;6.23;;;3.20;;
6300;SDS011;3183;51.010;6.898;2022-11-15T08:22:50;7.83;;;2.80;;
6300;SDS011;3183;51.010;6.898;2022-11-15T08:25:17;3.40;;;2.57;;
6300;SDS011;3183;51.010;6.898;2022-11-15T08:27:44;7.70;;;3.47;;
6300;SDS011;3183;51.010;6.898;2022-11-15T08:30:12;5.83;;;2.30;;
6300;SDS011;3183;51.010;6.898;2022-11-15T08:32:41;5.40;;;3.27;;
6300;SDS011;3183;51.010;6.898;2022-11-15T08:35:08;5.37;;;3.23;;
6300;SDS011;3183;51.010;6.898;2022-11-15T08:37:36;7.87;;;4.00;;
6300;SDS011;3183;51.010;6.898;2022-11-15T08:40:04;3.73;;;2.50;;
6300;SDS011;3183;51.010;6.898;2022-11-15T08:42:31;7.13;;;2.63;;
6300;SDS011;3183;51.010;6.898;2022-11-15T08:44:58;2.40;;;1.87;;
6300;SDS011;3183;51.010;6.898;2022-11-15T08:47:25;5.43;;;2.00;;
6300;SDS011;3183;51.010;6.898;2022-11-15T08:49:52;6.10;;;1.70;;
6300;SDS011;3183;51.010;6.898;2022-11-15T08:52:20;2.63;;;2.00;;
6300;SDS011;3183;51.010;6.898;2022-11-15T08:54:48;1.90;;;1.47;;
6300;SDS011;3183;51.010;6.898;2022-11-15T08:57:15;3.30;;;1.57;;
6300;SDS011;3183;51.010;6.898;2022-11-15T08:59:42;17.03;;;2.10;;
6300;SDS011;3183;51.010;6.898;2022-11-15T09:02:11;3.67;;;1.23;;
6300;SDS011;3183;51.010;6.898;2022-11-15T09:04:39;3.17;;;1.43;;
6300;SDS011;3183;51.010;6.898;2022-11-15T09:07:07;7.40;;;1.90;;
6300;SDS011;3183;51.010;6.898;2022-11-15T09:09:34;5.17;;;1.47;;
6300;SDS011;3183;51.010;6.898;2022-11-15T09:12:02;7.93;;;1.60;;
6300;SDS011;3183;51.010;6.898;2022-11-15T09:14:30;4.80;;;1.60;;
6300;SDS011;3183;51.010;6.898;2022-11-15T09:16:57;7.00;;;1.70;;
6300;SDS011;3183;51.010;6.898;2022-11-15T09:19:24;3.00;;;1.40;;
6300;SDS011;3183;51.010;6.898;2022-11-15T09:21:51;2.80;;;1.33;;
6300;SDS011;3183;51.010;6.898;2022-11-15T09:24:19;1.87;;;1.17;;
6300;SDS011;3183;51.010;6.898;2022-11-15T09:26:46;2.83;;;1.10;;
6300;SDS011;3183;51.010;6.898;2022-11-15T09:29:15;6.23;;;1.80;;
6300;SDS011;3183;51.010;6.898;2022-11-15T09:31:42;6.23;;;1.13;;
6300;SDS011;3183;51.010;6.898;2022-11-15T09:34:09;2.93;;;1.47;;
6300;SDS011;3183;51.010;6.898;2022-11-15T09:36:36;2.53;;;1.50;;
6300;SDS011;3183;51.010;6.898;2022-11-15T09:39:03;1.80;;;1.47;;
6300;SDS011;3183;51.010;6.898;2022-11-15T09:41:37;1.97;;;1.30;;
6300;SDS011;3183;51.010;6.898;2022-11-15T09:44:08;4.33;;;1.60;;
6300;SDS011;3183;51.010;6.898;2022-11-15T09:46:42;8.73;;;1.40;;
6300;SDS011;3183;51.010;6.898;2022-11-15T09:49:14;15.30;;;2.13;;
6300;SDS011;3183;51.010;6.898;2022-11-15T09:51:43;4.50;;;1.40;;
6300;SDS011;3183;51.010;6.898;2022-11-15T09:54:15;3.20;;;1.23;;
6300;SDS011;3183;51.010;6.898;2022-11-15T09:56:43;2.00;;;1.20;;
6300;SDS011;3183;51.010;6.898;2022-11-15T09:59:15;7.17;;;2.20;;
6300;SDS011;3183;51.010;6.898;2022-11-15T10:01:47;4.10;;;1.40;;
6300;SDS011;3183;51.010;6.898;2022-11-15T10:04:15;3.53;;;1.33;;
6300;SDS011;3183;51.010;6.898;2022-11-15T10:06:44;1.53;;;1.03;;
6300;SDS011;3183;51.010;6.898;2022-11-15T10:09:14;3.00;;;1.20;;
6300;SDS011;3183;51.010;6.898;2022-11-15T10:11:44;3.40;;;1.30;;
6300;SDS011;3183;51.010;6.898;2022-11-15T10:14:12;4.60;;;1.70;;
6300;SDS011;3183;51.010;6.898;2022-11-15T10:16:55;3.47;;;1.10;;
6300;SDS011;3183;51.010;6.898;2022-11-15T10:19:28;3.93;;;1.23;;
6300;SDS011;3183;51.010;6.898;2022-11-15T10:22:00;5.80;;;1.60;;
6300;SDS011;3183;51.010;6.898;2022-11-15T10:24:33;5.17;;;1.00;;
6300;SDS011;3183;51.010;6.898;2022-11-15T10:27:01;1.53;;;0.90;;
6300;SDS011;3183;51.010;6.898;2022-11-15T10:29:32;3.30;;;1.40;;
6300;SDS011;3183;51.010;6.898;2022-11-15T10:32:01;2.13;;;1.00;;
6300;SDS011;3183;51.010;6.898;2022-11-15T10:34:34;2.27;;;1.30;;
6300;SDS011;3183;51.010;6.898;2022-11-15T10:37:03;2.80;;;0.93;;
6300;SDS011;3183;51.010;6.898;2022-11-15T10:39:31;3.53;;;1.30;;
6300;SDS011;3183;51.010;6.898;2022-11-15T10:42:00;2.10;;;0.83;;
6300;SDS011;3183;51.010;6.898;2022-11-15T10:44:43;2.70;;;1.03;;
6300;SDS011;3183;51.010;6.898;2022-11-15T10:47:30;1.60;;;0.90;;
6300;SDS011;3183;51.010;6.898;2022-11-15T10:49:59;2.83;;;1.30;;
6300;SDS011;3183;51.010;6.898;2022-11-15T10:52:27;4.10;;;0.90;;
6300;SDS011;3183;51.010;6.898;2022-11-15T10:54:56;2.80;;;0.80;;
6300;SDS011;3183;51.010;6.898;2022-11-15T10:57:24;1.60;;;0.93;;
6300;SDS011;3183;51.010;6.898;2022-11-15T10:59:53;4.67;;;0.97;;
6300;SDS011;3183;51.010;6.898;2022-11-15T11:02:28;2.67;;;0.87;;
6300;SDS011;3183;51.010;6.898;2022-11-15T11:04:57;21.73;;;1.77;;
6300;SDS011;3183;51.010;6.898;2022-11-15T11:07:26;12.37;;;1.20;;
6300;SDS011;3183;51.010;6.898;2022-11-15T11:09:57;3.07;;;0.87;;
6300;SDS011;3183;51.010;6.898;2022-11-15T11:12:29;7.33;;;1.27;;
6300;SDS011;3183;51.010;6.898;2022-11-15T11:14:57;2.93;;;0.90;;
6300;SDS011;3183;51.010;6.898;2022-11-15T11:17:26;1.27;;;0.80;;
6300;SDS011;3183;51.010;6.898;2022-11-15T11:20:00;1.40;;;0.80;;
6300;SDS011;3183;51.010;6.898;2022-11-15T11:22:30;3.90;;;1.00;;
6300;SDS011;3183;51.010;6.898;2022-11-15T11:25:04;4.80;;;0.97;;
6300;SDS011;3183;51.010;6.898;2022-11-15T11:27:36;8.10;;;0.90;;
6300;SDS011;3183;51.010;6.898;2022-11-15T11:30:06;1.30;;;0.60;;
6300;SDS011;3183;51.010;6.898;2022-11-15T11:35:20;4.07;;;1.30;;
6300;SDS011;3183;51.010;6.898;2022-11-15T11:37:50;2.77;;;1.07;;
6300;SDS011;3183;51.010;6.898;2022-11-15T11:40:20;4.17;;;1.10;;
6300;SDS011;3183;51.010;6.898;2022-11-15T11:42:53;6.20;;;1.00;;
6300;SDS011;3183;51.010;6.898;2022-11-15T11:45:26;1.30;;;0.80;;
6300;SDS011;3183;51.010;6.898;2022-11-15T11:47:57;5.47;;;0.70;;
6300;SDS011;3183;51.010;6.898;2022-11-15T11:50:29;4.07;;;1.20;;
6300;SDS011;3183;51.010;6.898;2022-11-15T11:52:57;0.97;;;0.87;;
6300;SDS011;3183;51.010;6.898;2022-11-15T11:55:26;4.00;;;0.90;;
6300;SDS011;3183;51.010;6.898;2022-11-15T11:57:59;5.50;;;1.00;;
6300;SDS011;3183;51.010;6.898;2022-11-15T12:00:29;2.03;;;1.00;;
6300;SDS011;3183;51.010;6.898;2022-11-15T12:03:03;3.33;;;1.00;;
6300;SDS011;3183;51.010;6.898;2022-11-15T12:05:32;5.47;;;1.40;;
6300;SDS011;3183;51.010;6.898;2022-11-15T12:08:04;5.27;;;1.30;;
6300;SDS011;3183;51.010;6.898;2022-11-15T12:10:36;6.23;;;1.00;;
6300;SDS011;3183;51.010;6.898;2022-11-15T12:13:05;3.33;;;0.90;;
6300;SDS011;3183;51.010;6.898;2022-11-15T12:15:35;3.63;;;0.80;;
6300;SDS011;3183;51.010;6.898;2022-11-15T12:18:03;1.33;;;0.60;;
6300;SDS011;3183;51.010;6.898;2022-11-15T12:20:33;2.97;;;0.80;;
6300;SDS011;3183;51.010;6.898;2022-11-15T12:23:03;3.10;;;1.30;;
6300;SDS011;3183;51.010;6.898;2022-11-15T12:25:33;2.50;;;1.03;;
6300;SDS011;3183;51.010;6.898;2022-11-15T12:28:03;2.93;;;1.17;;
6300;SDS011;3183;51.010;6.898;2022-11-15T12:30:37;2.97;;;1.17;;
6300;SDS011;3183;51.010;6.898;2022-11-15T12:33:15;3.07;;;0.90;;
6300;SDS011;3183;51.010;6.898;2022-11-15T12:35:58;3.83;;;1.37;;
6300;SDS011;3183;51.010;6.898;2022-11-15T12:41:14;3.77;;;1.17;;
6300;SDS011;3183;51.010;6.898;2022-11-15T12:43:42;5.33;;;1.10;;
6300;SDS011;3183;51.010;6.898;2022-11-15T12:46:10;4.60;;;1.60;;
6300;SDS011;3183;51.010;6.898;2022-11-15T12:56:49;6.63;;;1.20;;
6300;SDS011;3183;51.010;6.898;2022-11-15T12:59:49;6.30;;;1.57;;
6300;SDS011;3183;51.010;6.898;2022-11-15T13:02:17;2.30;;;1.10;;
6300;SDS011;3183;51.010;6.898;2022-11-15T13:04:47;1.00;;;0.90;;
6300;SDS011;3183;51.010;6.898;2022-11-15T13:07:54;3.00;;;1.00;;
6300;SDS011;3183;51.010;6.898;2022-11-15T13:10:28;7.43;;;1.07;;
6300;SDS011;3183;51.010;6.898;2022-11-15T13:12:58;3.90;;;1.20;;
6300;SDS011;3183;51.010;6.898;2022-11-15T13:21:18;1.20;;;1.00;;
6300;SDS011;3183;51.010;6.898;2022-11-15T13:24:12;2.80;;;1.37;;
6300;SDS011;3183;51.010;6.898;2022-11-15T13:26:40;5.50;;;1.43;;
6300;SDS011;3183;51.010;6.898;2022-11-15T13:29:16;3.63;;;1.67;;
6300;SDS011;3183;51.010;6.898;2022-11-15T13:31:44;1.80;;;1.13;;
6300;SDS011;3183;51.010;6.898;2022-11-15T13:36:58;3.87;;;1.77;;
6300;SDS011;3183;51.010;6.898;2022-11-15T13:39:27;3.07;;;1.33;;
6300;SDS011;3183;51.010;6.898;2022-11-15T13:41:54;3.47;;;1.50;;
6300;SDS011;3183;51.010;6.898;2022-11-15T13:44:24;4.03;;;1.50;;
6300;SDS011;3183;51.010;6.898;2022-11-15T13:47:00;3.70;;;1.93;;
6300;SDS011;3183;51.010;6.898;2022-11-15T13:49:30;4.80;;;1.57;;
6300;SDS011;3183;51.010;6.898;2022-11-15T13:51:57;6.00;;;1.77;;
6300;SDS011;3183;51.010;6.898;2022-11-15T13:54:26;5.23;;;1.87;;
6300;SDS011;3183;51.010;6.898;2022-11-15T13:56:54;5.30;;;2.20;;
6300;SDS011;3183;51.010;6.898;2022-11-15T13:59:26;3.50;;;2.10;;
6300;SDS011;3183;51.010;6.898;2022-11-15T14:01:54;4.87;;;2.50;;
6300;SDS011;3183;51.010;6.898;2022-11-15T14:04:22;4.37;;;1.87;;
6300;SDS011;3183;51.010;6.898;2022-11-15T14:06:51;5.97;;;2.20;;
6300;SDS011;3183;51.010;6.898;2022-11-15T14:12:22;3.47;;;2.27;;
6300;SDS011;3183;51.010;6.898;2022-11-15T14:14:51;2.93;;;1.93;;
6300;SDS011;3183;51.010;6.898;2022-11-15T14:17:20;4.93;;;2.30;;
6300;SDS011;3183;51.010;6.898;2022-11-15T14:19:48;5.63;;;2.23;;
6300;SDS011;3183;51.010;6.898;2022-11-15T14:22:18;2.17;;;1.87;;
6300;SDS011;3183;51.010;6.898;2022-11-15T14:24:47;4.03;;;2.13;;
6300;SDS011;3183;51.010;6.898;2022-11-15T14:27:21;3.03;;;2.30;;
6300;SDS011;3183;51.010;6.898;2022-11-15T14:29:49;6.80;;;2.33;;
6300;SDS011;3183;51.010;6.898;2022-11-15T14:32:18;2.33;;;1.73;;
6300;SDS011;3183;51.010;6.898;2022-11-15T14:34:46;7.93;;;2.10;;
6300;SDS011;3183;51.010;6.898;2022-11-15T14:37:19;4.23;;;2.50;;
6300;SDS011;3183;51.010;6.898;2022-11-15T14:39:46;10.70;;;1.97;;
6300;SDS011;3183;51.010;6.898;2022-11-15T14:42:13;2.53;;;1.87;;
6300;SDS011;3183;51.010;6.898;2022-11-15T14:44:40;4.67;;;2.07;;
6300;SDS011;3183;51.010;6.898;2022-11-15T14:47:08;4.70;;;2.10;;
6300;SDS011;3183;51.010;6.898;2022-11-15T14:49:36;5.87;;;2.43;;
6300;SDS011;3183;51.010;6.898;2022-11-15T14:52:07;4.90;;;2.13;;
6300;SDS011;3183;51.010;6.898;2022-11-15T14:54:34;3.60;;;1.63;;
6300;SDS011;3183;51.010;6.898;2022-11-15T14:57:01;2.37;;;1.83;;
6300;SDS011;3183;51.010;6.898;2022-11-15T14:59:28;5.00;;;2.20;;
6300;SDS011;3183;51.010;6.898;2022-11-15T15:01:55;3.40;;;2.03;;
6300;SDS011;3183;51.010;6.898;2022-11-15T15:04:24;9.53;;;1.97;;
6300;SDS011;3183;51.010;6.898;2022-11-15T15:06:52;4.20;;;1.70;;
6300;SDS011;3183;51.010;6.898;2022-11-15T15:09:19;4.90;;;2.63;;
6300;SDS011;3183;51.010;6.898;2022-11-15T15:11:46;2.53;;;1.90;;
6300;SDS011;3183;51.010;6.898;2022-11-15T15:14:13;4.43;;;2.43;;
6300;SDS011;3183;51.010;6.898;2022-11-15T15:16:41;5.90;;;2.13;;
6300;SDS011;3183;51.010;6.898;2022-11-15T15:19:08;7.17;;;2.37;;
6300;SDS011;3183;51.010;6.898;2022-11-15T15:21:35;5.40;;;1.83;;
6300;SDS011;3183;51.010;6.898;2022-11-15T15:24:03;3.10;;;1.70;;
6300;SDS011;3183;51.010;6.898;2022-11-15T15:26:30;3.40;;;2.10;;
6300;SDS011;3183;51.010;6.898;2022-11-15T15:29:00;3.13;;;1.87;;
6300;SDS011;3183;51.010;6.898;2022-11-15T15:31:27;4.63;;;1.93;;
6300;SDS011;3183;51.010;6.898;2022-11-15T15:33:54;2.50;;;1.80;;
6300;SDS011;3183;51.010;6.898;2022-11-15T15:36:21;10.37;;;2.80;;
6300;SDS011;3183;51.010;6.898;2022-11-15T15:38:48;2.97;;;1.60;;
6300;SDS011;3183;51.010;6.898;2022-11-15T15:41:16;4.10;;;2.30;;
6300;SDS011;3183;51.010;6.898;2022-11-15T15:43:44;3.37;;;2.10;;
6300;SDS011;3183;51.010;6.898;2022-11-15T15:46:11;3.43;;;1.70;;
6300;SDS011;3183;51.010;6.898;2022-11-15T15:48:39;4.30;;;2.03;;
6300;SDS011;3183;51.010;6.898;2022-11-15T15:51:06;5.73;;;2.17;;